• Join FlightAware (Why Join?)
  • Login
  • US Flag 
03:12PM EST


 

Airport Tracker/Info


-or-


 

Live Flight TrackerFlight Track Log ✈ DAL3721 ✈ 23-Aug-2013 ✈ KCVG - KMCI

Flight Track Log - Related Links

Times and Time Zones

All times are in EDT time to prevent confusion due to time zone crossing. See the DAL3721 flight status page for this flight to view local times or setup timezone preferences in your user account.

Time Position Orientation Groundspeed Altitude Reporting Facility
EDT Latitude Longitude Course Direction KTS MPH feet Rate Location/Type
08:21PM 39.0500 -84.7000 252° West 168 193 1,500  Level Cincinnati TRACON
08:22PM 39.0333 -84.7667 252° West 230 265 3,000 1,680 Climbing Cincinnati TRACON
08:23PM 39.0333 -84.8667 270° West 286 329 4,900 2,340 Climbing Cincinnati TRACON
08:24PM 39.0500 -84.9500 284° West 282 325 7,700 2,340 Climbing Cincinnati TRACON
08:25PM 39.0950 -85.0694 296° West 282 325 10,600 1,800 Climbing Indianapolis Center
08:26PM 39.1397 -85.2000 294° West 330 380 12,100 1,440 Climbing Indianapolis Center
08:27PM 39.1786 -85.3139 294° West 346 398 13,600 1,440 Climbing Indianapolis Center
08:28PM 39.2183 -85.4311 294° West 355 409 15,100 1,440 Climbing Indianapolis Center
08:29PM 39.2364 -85.5567 281° West 354 407 16,600 1,200 Climbing Indianapolis Center
08:30PM 39.2572 -85.6844 282° West 362 417 17,700 1,020 Climbing Indianapolis Center
08:32PM 39.2781 -85.8136 282° West 366 421 18,700 960 Climbing Indianapolis Center
08:33PM 39.2997 -85.9469 282° West 376 433 19,700 1,020 Climbing Indianapolis Center
08:34PM 39.3256 -86.1086 282° West 381 438 20,900 1,020 Climbing Indianapolis Center
08:35PM 39.3486 -86.2444 282° West 384 442 21,900 900 Climbing Indianapolis Center
08:36PM 39.3697 -86.3797 281° West 384 442 22,800 660 Climbing Indianapolis Center
08:37PM 39.3894 -86.5189 280° West 389 448 23,300 480 Climbing Indianapolis Center
08:38PM 39.4153 -86.6592 283° West 397 457 23,800 480 Climbing Indianapolis Center
08:39PM 39.4358 -86.8039 280° West 407 468 24,300 480 Climbing Indianapolis Center
08:40PM 39.4575 -86.9481 281° West 409 471 24,800 480 Climbing Indianapolis Center
08:41PM 39.4786 -87.0942 281° West 413 475 25,300 480 Climbing Indianapolis Center
08:42PM 39.5064 -87.2719 282° West 420 483 25,900 480 Climbing Indianapolis Center
08:43PM 39.5281 -87.4203 281° West 420 483 26,400 480 Climbing Indianapolis Center
08:44PM 39.5497 -87.5686 281° West 421 484 26,900 480 Climbing Indianapolis Center
08:45PM 39.5714 -87.7156 281° West 418 481 27,400 480 Climbing Indianapolis Center
08:46PM 39.5931 -87.8647 281° West 421 484 27,900 240 Climbing Indianapolis Center
08:47PM 39.6144 -88.0133 281° West 420 483 28,000  Climbing Indianapolis Center
08:48PM 39.6364 -88.1625 281° West 422 486 28,000  Level Indianapolis Center
08:49PM 39.6583 -88.3297 280° West 423 487 28,000  Level Kansas City Center
08:50PM 39.6797 -88.4806 280° West 425 489 28,000  Level Kansas City Center
08:51PM 39.7000 -88.6339 280° West 427 491 28,000  Level Kansas City Center
08:52PM 39.7219 -88.7844 281° West 426 490 28,000  Level Kansas City Center
08:53PM 39.7422 -88.9372 280° West 428 493 28,000  Level Kansas City Center
08:54PM 39.7622 -89.0900 280° West 429 494 28,000  Level Kansas City Center
08:55PM 39.7828 -89.2433 280° West 430 495 28,000  Level Kansas City Center
08:56PM 39.8031 -89.3964 280° West 430 495 28,000  Level Kansas City Center
08:57PM 39.8275 -89.5800 280° West 429 494 28,000  Level Kansas City Center
08:58PM 39.8364 -89.7386 274° West 443 510 28,000  Level Kansas City Center
08:59PM 39.8400 -89.8944 272° West 436 502 28,000  Level Kansas City Center
09:00PM 39.8419 -90.0539 271° West 437 503 28,000  Level Kansas City Center
09:01PM 39.8431 -90.2111 271° West 437 503 28,000  Level Kansas City Center
09:02PM 39.8436 -90.3683 270° West 435 501 28,000  Level Kansas City Center
09:03PM 39.8469 -90.5303 272° West 439 505 28,000  Level Kansas City Center
09:04PM 39.8478 -90.6892 270° West 440 506 28,000  Level Kansas City Center
09:05PM 39.8489 -90.8786 270° West 437 503 28,000  Level Kansas City Center
09:06PM 39.8475 -91.0269 269° West 435 501 28,000  Level Kansas City Center
09:08PM 39.8478 -91.1831 270° West 434 499 28,000  Level Kansas City Center
09:09PM 39.8456 -91.3381 269° West 433 498 28,000  Level Kansas City Center
09:10PM 39.8317 -91.5225 264° West 431 496 28,000  Level Kansas City Center
09:11PM 39.8197 -91.6789 264° West 434 499 28,000  Level Kansas City Center
09:12PM 39.8081 -91.8331 264° West 433 498 28,000  Level Kansas City Center
09:13PM 39.7950 -91.9897 264° West 435 501 28,000  Level Kansas City Center
09:14PM 39.7831 -92.1447 264° West 435 501 28,000 -240 Level Kansas City Center
09:15PM 39.7703 -92.2992 264° West 432 497 27,600 -720 Descending Kansas City Center
09:16PM 39.7572 -92.4542 264° West 432 497 26,600 -1,080 Descending Kansas City Center
09:17PM 39.7406 -92.6422 263° West 435 501 25,400 -1,140 Descending Kansas City Center
09:18PM 39.7275 -92.7967 264° West 434 499 24,400 -1,020 Descending Kansas City Center
09:19PM 39.7153 -92.9489 264° West 430 495 23,400 -1,020 Descending Kansas City Center
09:20PM 39.7044 -93.0978 265° West 423 487 22,400 -1,200 Descending Kansas City Center
09:21PM 39.6897 -93.2442 263° West 414 476 21,000 -1,800 Descending Kansas City Center
09:22PM 39.6758 -93.3903 263° West 412 474 18,800 -2,040 Descending Kansas City Center
09:23PM 39.6656 -93.5311 265° West 404 465 16,800 -2,160 Descending Kansas City Center
09:24PM 39.6489 -93.6922 262° West 381 438 14,400 -2,040 Descending Kansas City Center
09:25PM 39.6364 -93.8122 262° West 363 418 12,700 -1,740 Descending Kansas City Center
09:26PM 39.5967 -93.9403 248° West 337 388 10,900 -1,500 Descending Kansas City Center
09:27PM 39.5681 -94.0369 249° West 300 345 9,700 -1,380 Descending Kansas City Center
09:28PM 39.5431 -94.1286 251° West 283 326 8,100 -1,320 Descending Kansas City Center
09:29PM 39.5228 -94.2369 256° West 276 318 7,000 -540 Descending Kansas City Center
09:30PM 39.5081 -94.3281 258° West 272 313 7,000 -960 Level Kansas City Center
09:31PM 39.4803 -94.4322 251° West 274 315 5,100 -1,500 Descending Kansas City Center
09:32PM 39.4619 -94.5189 255° West 262 302 4,000 -1,020 Descending Kansas City Center
09:33PM 39.4439 -94.6067 255° West 228 262 3,100 -720 Descending Kansas City Center
09:34PM 39.4169 -94.6681 240° Southwest 205 236 2,600 -420 Descending Kansas City Center
09:35PM 39.3714 -94.6825 194° South 177 204 2,300 -540 Descending Kansas City Center
09:36PM 39.3311 -94.6944 193° South 131 151 1,500 -660 Descending Kansas City Center
09:37PM 39.2969 -94.7044 193° South 130 150 1,000 -540 Descending Kansas City Center
09:39PM 39.2833 -94.7000 270° West  Level FlightAware Approximate